createdAt,value
2019-02-14T00:01:05.449Z,99.90
2019-02-14T00:03:36.637Z,99.90
2019-02-14T00:06:08.053Z,99.90
2019-02-14T00:08:39.125Z,99.90
2019-02-14T00:11:10.540Z,99.90
2019-02-14T00:13:41.635Z,99.90
2019-02-14T00:16:12.932Z,99.90
2019-02-14T00:18:43.980Z,99.90
2019-02-14T00:21:15.327Z,99.90
2019-02-14T00:23:46.442Z,99.90
2019-02-14T00:26:17.729Z,99.90
2019-02-14T00:28:48.849Z,99.90
2019-02-14T00:31:20.324Z,99.90
2019-02-14T00:33:51.392Z,99.90
2019-02-14T00:36:22.908Z,99.90
2019-02-14T00:38:54.021Z,99.90
2019-02-14T00:41:25.402Z,99.90
2019-02-14T00:43:56.468Z,99.90
2019-02-14T00:46:27.726Z,99.90
2019-02-14T00:48:58.788Z,99.90
2019-02-14T00:51:30.186Z,99.90
2019-02-14T00:54:01.252Z,99.90
2019-02-14T00:56:32.678Z,99.90
2019-02-14T00:59:03.825Z,99.90
2019-02-14T01:01:35.166Z,99.90
2019-02-14T01:04:06.256Z,99.90
2019-02-14T01:06:37.871Z,99.90
2019-02-14T01:09:08.962Z,99.90
2019-02-14T01:11:40.376Z,99.90
2019-02-14T01:14:11.613Z,99.90
2019-02-14T01:16:42.934Z,99.90
2019-02-14T01:19:15.470Z,99.90
2019-02-14T01:21:46.995Z,99.90
2019-02-14T01:24:18.067Z,99.90
2019-02-14T01:26:49.492Z,99.90
2019-02-14T01:29:20.575Z,99.90
2019-02-14T01:31:51.981Z,99.90
2019-02-14T01:34:23.086Z,99.90
2019-02-14T01:36:54.680Z,99.90
2019-02-14T01:39:25.812Z,99.90
2019-02-14T01:41:57.104Z,99.90
2019-02-14T01:44:28.178Z,99.90
2019-02-14T01:46:59.568Z,99.90
2019-02-14T01:49:30.641Z,99.90
2019-02-14T01:52:01.960Z,99.90
2019-02-14T01:54:33.036Z,99.90
2019-02-14T01:57:04.360Z,99.90
2019-02-14T01:59:35.601Z,99.90
2019-02-14T02:02:07.155Z,99.90
2019-02-14T02:04:38.344Z,99.90
2019-02-14T02:07:21.434Z,99.90
2019-02-14T02:09:52.503Z,99.90
2019-02-14T02:12:24.161Z,99.90
2019-02-14T02:14:55.298Z,99.90
2019-02-14T02:17:26.616Z,99.90
2019-02-14T02:19:57.799Z,99.90
2019-02-14T02:22:29.212Z,99.90
2019-02-14T02:25:00.649Z,99.90
2019-02-14T02:27:32.011Z,99.90
2019-02-14T02:30:03.365Z,99.90
2019-02-14T02:32:35.521Z,99.90
2019-02-14T02:35:06.800Z,99.90
2019-02-14T02:37:38.247Z,99.90
2019-02-14T02:40:09.673Z,99.90
2019-02-14T02:42:40.978Z,99.90
2019-02-14T02:45:13.648Z,99.90
2019-02-14T02:47:45.368Z,99.90
2019-02-14T02:50:16.505Z,99.90
2019-02-14T02:52:47.764Z,99.90
2019-02-14T02:55:18.892Z,99.90
2019-02-14T02:57:50.267Z,99.90
2019-02-14T03:00:21.310Z,99.90
2019-02-14T03:03:00.843Z,99.90
2019-02-14T03:05:32.010Z,99.90
2019-02-14T03:08:03.333Z,99.90
2019-02-14T03:10:34.401Z,99.90
2019-02-14T03:13:05.644Z,99.90
2019-02-14T03:15:36.780Z,99.90
2019-02-14T03:18:07.957Z,99.90
2019-02-14T03:20:39.092Z,99.90
2019-02-14T03:23:10.411Z,99.90
2019-02-14T03:25:41.516Z,99.90
2019-02-14T03:28:12.900Z,99.90
2019-02-14T03:30:44.036Z,99.90
2019-02-14T03:33:15.570Z,99.90
2019-02-14T03:35:46.674Z,99.90
2019-02-14T03:38:18.092Z,99.90
2019-02-14T03:41:08.224Z,99.90
2019-02-14T03:43:39.643Z,99.90
2019-02-14T03:46:22.816Z,99.90
2019-02-14T03:48:54.108Z,99.90
2019-02-14T03:51:25.179Z,99.90
2019-02-14T03:53:56.528Z,99.90
2019-02-14T03:56:27.603Z,99.90
2019-02-14T03:58:59.046Z,99.90
2019-02-14T04:01:30.205Z,99.90
2019-02-14T04:04:01.540Z,99.90
2019-02-14T04:06:32.641Z,99.90
2019-02-14T04:09:07.069Z,99.90
2019-02-14T04:11:38.257Z,99.90
2019-02-14T04:14:28.560Z,99.90
2019-02-14T04:16:59.669Z,99.90
2019-02-14T04:19:30.909Z,99.90
2019-02-14T04:22:02.022Z,99.90
2019-02-14T04:24:33.191Z,99.90
2019-02-14T04:27:04.464Z,99.90
2019-02-14T04:29:35.769Z,99.90
2019-02-14T04:32:07.105Z,99.90
2019-02-14T04:34:38.474Z,99.90
2019-02-14T04:37:09.794Z,99.90
2019-02-14T04:39:41.077Z,99.90
2019-02-14T04:42:12.217Z,99.90
2019-02-14T04:44:43.421Z,99.90
2019-02-14T04:47:14.519Z,99.90
2019-02-14T04:49:45.772Z,99.90
2019-02-14T04:52:16.873Z,99.90
2019-02-14T04:54:48.089Z,99.90
2019-02-14T04:57:19.180Z,99.90
2019-02-14T04:59:50.503Z,99.90
2019-02-14T05:02:21.635Z,99.90
2019-02-14T05:04:53.161Z,99.90
2019-02-14T05:07:24.346Z,99.90
2019-02-14T05:09:55.733Z,99.90
2019-02-14T05:12:27.029Z,99.90
2019-02-14T05:14:58.279Z,99.90
2019-02-14T05:17:29.393Z,99.90
2019-02-14T05:20:00.663Z,99.90
2019-02-14T05:22:31.734Z,99.90
2019-02-14T05:25:03.217Z,99.90
2019-02-14T05:27:34.309Z,99.90
2019-02-14T05:30:05.874Z,99.90
2019-02-14T05:32:36.984Z,99.90
2019-02-14T05:35:08.655Z,99.90
2019-02-14T05:37:39.747Z,99.90
2019-02-14T05:40:11.017Z,99.90
2019-02-14T05:42:42.167Z,99.90
2019-02-14T05:45:13.882Z,99.90
2019-02-14T05:47:45.001Z,99.90
2019-02-14T05:50:16.839Z,99.90
2019-02-14T05:52:48.267Z,99.90
2019-02-14T05:55:19.716Z,99.90
2019-02-14T05:57:51.066Z,99.90
2019-02-14T06:00:22.535Z,99.90
2019-02-14T06:02:53.813Z,99.90
2019-02-14T06:05:25.219Z,99.90
2019-02-14T06:07:56.505Z,99.90
2019-02-14T06:10:29.243Z,99.90
2019-02-14T06:13:00.541Z,99.90
2019-02-14T06:15:31.865Z,99.90
2019-02-14T06:18:03.273Z,99.90
2019-02-14T06:20:34.925Z,99.90
2019-02-14T06:23:06.017Z,99.90
2019-02-14T06:25:37.465Z,99.90
2019-02-14T06:28:08.574Z,99.90
2019-02-14T06:30:41.167Z,99.90
2019-02-14T06:33:13.431Z,99.90
2019-02-14T06:35:44.785Z,99.90
2019-02-14T06:38:16.126Z,99.90
2019-02-14T06:40:47.593Z,99.90
2019-02-14T06:43:19.273Z,99.90
2019-02-14T06:45:50.704Z,99.90
2019-02-14T06:48:21.805Z,99.90
2019-02-14T06:50:53.201Z,99.90
2019-02-14T06:53:24.522Z,99.90
2019-02-14T06:55:55.995Z,99.90
2019-02-14T06:58:27.153Z,99.90
2019-02-14T07:00:58.798Z,99.90
2019-02-14T07:03:29.879Z,99.90
2019-02-14T07:06:01.285Z,99.90
2019-02-14T07:08:32.350Z,99.90
2019-02-14T07:11:03.784Z,99.90
2019-02-14T07:13:34.854Z,99.90
2019-02-14T07:16:06.082Z,99.90
2019-02-14T07:18:37.391Z,99.90
2019-02-14T07:21:08.844Z,99.90
2019-02-14T07:23:40.051Z,99.90
2019-02-14T07:26:11.470Z,99.90
2019-02-14T07:28:42.983Z,99.90
2019-02-14T07:31:14.166Z,99.90
2019-02-14T07:33:45.296Z,99.90
2019-02-14T07:36:16.677Z,99.90
2019-02-14T07:38:48.060Z,99.90
2019-02-14T07:41:19.469Z,99.90
2019-02-14T07:43:50.603Z,99.90
2019-02-14T07:46:22.997Z,99.90
2019-02-14T07:48:54.391Z,99.90
2019-02-14T07:51:25.792Z,99.90
2019-02-14T07:53:57.163Z,99.90
2019-02-14T07:56:29.409Z,99.90
2019-02-14T07:59:00.712Z,99.90
2019-02-14T08:01:32.212Z,99.90
2019-02-14T08:04:03.302Z,99.90
2019-02-14T08:06:34.813Z,99.90
2019-02-14T08:09:06.989Z,99.90
2019-02-14T08:11:38.325Z,99.90
2019-02-14T08:14:09.410Z,99.90
2019-02-14T08:16:40.731Z,99.90
2019-02-14T08:19:11.976Z,99.90
2019-02-14T08:21:43.426Z,99.90
2019-02-14T08:24:14.525Z,99.90
2019-02-14T08:26:45.661Z,99.90
2019-02-14T08:29:16.733Z,99.90
2019-02-14T08:31:48.198Z,99.90
2019-02-14T08:34:19.241Z,99.90
2019-02-14T08:36:50.481Z,99.90
2019-02-14T08:39:21.556Z,99.90
2019-02-14T08:41:52.789Z,99.90
2019-02-14T08:44:23.956Z,99.90
2019-02-14T08:46:55.373Z,99.90
2019-02-14T08:49:26.444Z,99.90
2019-02-14T08:51:57.887Z,99.90
2019-02-14T08:54:30.143Z,99.90
2019-02-14T08:57:01.497Z,99.90
2019-02-14T08:59:32.744Z,99.90
2019-02-14T09:02:04.093Z,99.90
2019-02-14T09:04:35.376Z,99.90
2019-02-14T09:07:06.696Z,99.90
2019-02-14T09:09:37.892Z,99.90
2019-02-14T09:12:09.292Z,99.90
2019-02-14T09:14:41.743Z,99.90
2019-02-14T09:17:13.115Z,99.90
2019-02-14T09:19:44.747Z,99.90
2019-02-14T09:22:16.116Z,99.90
2019-02-14T09:24:47.219Z,99.90
2019-02-14T09:27:18.917Z,99.90
2019-02-14T09:29:50.199Z,99.90
2019-02-14T09:32:25.331Z,99.90
2019-02-14T09:34:56.439Z,99.90
2019-02-14T09:37:27.818Z,99.90
2019-02-14T09:39:59.457Z,99.90
2019-02-14T09:42:31.001Z,99.90
2019-02-14T09:45:02.099Z,99.90
2019-02-14T09:47:33.700Z,99.90
2019-02-14T09:50:06.384Z,99.90
2019-02-14T09:52:37.736Z,99.90
2019-02-14T09:55:09.374Z,99.90
2019-02-14T09:57:40.734Z,99.90
2019-02-14T10:00:14.329Z,99.90
2019-02-14T10:02:47.222Z,99.90
2019-02-14T10:05:18.281Z,99.90
2019-02-14T10:07:49.727Z,99.90
2019-02-14T10:10:20.897Z,99.90
2019-02-14T10:12:52.523Z,99.90
2019-02-14T10:15:23.688Z,99.90
2019-02-14T10:17:55.022Z,99.90
2019-02-14T10:20:26.280Z,99.90
2019-02-14T10:22:57.682Z,99.90
2019-02-14T10:25:28.802Z,99.90
2019-02-14T10:28:00.567Z,99.90
2019-02-14T10:30:31.714Z,99.90
2019-02-14T10:33:03.221Z,99.90
2019-02-14T10:35:34.548Z,99.90
2019-02-14T10:38:06.278Z,99.90
2019-02-14T10:40:37.510Z,99.90
2019-02-14T10:43:09.162Z,99.90
2019-02-14T10:45:40.301Z,99.90
2019-02-14T10:48:12.022Z,99.90
2019-02-14T10:50:43.154Z,99.90
2019-02-14T10:53:14.727Z,99.90
2019-02-14T10:55:46.096Z,99.90
2019-02-14T10:58:17.846Z,99.90
2019-02-14T11:00:48.907Z,99.90
2019-02-14T11:03:20.239Z,99.90
2019-02-14T11:05:51.514Z,99.90
2019-02-14T11:08:31.438Z,99.90
2019-02-14T11:10:56.603Z,99.90
2019-02-14T11:13:27.930Z,99.90
2019-02-14T11:15:58.972Z,99.90
2019-02-14T11:18:30.366Z,99.90
2019-02-14T11:21:01.633Z,99.90
2019-02-14T11:23:33.077Z,96.80
2019-02-14T11:26:04.167Z,90.50
2019-02-14T11:28:35.810Z,80.20
2019-02-14T11:31:06.858Z,71.20
2019-02-14T11:33:38.272Z,66.60
2019-02-14T11:36:09.458Z,63.60
2019-02-14T11:38:41.010Z,58.50
2019-02-14T11:41:12.215Z,56.80
2019-02-14T11:43:43.470Z,56.90
2019-02-14T11:46:14.556Z,56.60
2019-02-14T11:48:47.858Z,54.50
2019-02-14T11:51:18.956Z,54.70
2019-02-14T11:53:50.201Z,54.40
2019-02-14T11:56:40.333Z,57.20
2019-02-14T11:59:11.571Z,54.80
2019-02-14T12:01:42.784Z,53.40
2019-02-14T12:04:14.346Z,51.30
2019-02-14T12:06:45.529Z,51.40
2019-02-14T12:09:17.305Z,50.40
2019-02-14T12:11:48.425Z,50.20
2019-02-14T12:14:19.845Z,48.30
2019-02-14T12:16:51.313Z,48.20
2019-02-14T12:19:23.250Z,47.80
2019-02-14T12:21:54.369Z,50.40
2019-02-14T12:24:25.641Z,49.00
2019-02-14T12:26:56.800Z,47.40
2019-02-14T12:29:28.455Z,48.40
2019-02-14T12:31:59.560Z,48.00
2019-02-14T12:34:30.838Z,47.50
2019-02-14T12:37:02.128Z,47.10
2019-02-14T12:39:33.559Z,46.50
2019-02-14T12:42:04.687Z,45.60
2019-02-14T12:44:36.016Z,46.60
2019-02-14T12:47:07.152Z,43.50
2019-02-14T12:49:38.509Z,43.90
2019-02-14T12:52:10.913Z,45.80
2019-02-14T12:54:42.242Z,45.40
2019-02-14T12:57:13.573Z,44.40
2019-02-14T12:59:45.146Z,41.40
2019-02-14T13:02:16.208Z,43.00
2019-02-14T13:04:47.447Z,41.40
2019-02-14T13:07:20.357Z,41.20
2019-02-14T13:09:51.575Z,41.10
2019-02-14T13:12:22.768Z,41.20
2019-02-14T13:14:54.279Z,41.70
2019-02-14T13:17:25.334Z,42.70
2019-02-14T13:19:56.974Z,41.10
2019-02-14T13:22:28.163Z,42.50
2019-02-14T13:24:59.372Z,44.70
2019-02-14T13:27:30.543Z,44.60
2019-02-14T13:30:02.062Z,44.00
2019-02-14T13:32:33.258Z,43.80
2019-02-14T13:35:06.189Z,43.90
2019-02-14T13:37:37.354Z,44.40
2019-02-14T13:40:09.072Z,46.00
2019-02-14T13:42:40.292Z,48.60
2019-02-14T13:45:13.756Z,49.80
2019-02-14T13:47:45.025Z,51.00
2019-02-14T13:50:16.361Z,51.70
2019-02-14T13:52:47.771Z,51.00
2019-02-14T13:55:19.029Z,51.00
2019-02-14T13:57:50.804Z,50.10
2019-02-14T14:00:24.902Z,48.20
2019-02-14T14:02:56.124Z,47.30
2019-02-14T14:05:27.827Z,45.80
2019-02-14T14:08:00.335Z,45.80
2019-02-14T14:10:31.977Z,46.10
2019-02-14T14:13:03.441Z,44.40
2019-02-14T14:15:34.740Z,44.40
2019-02-14T14:18:05.833Z,44.10
2019-02-14T14:20:37.149Z,44.00
2019-02-14T14:23:08.329Z,42.50
2019-02-14T14:25:40.045Z,42.30
2019-02-14T14:28:11.331Z,43.40
2019-02-14T14:30:42.840Z,43.20
2019-02-14T14:33:13.951Z,42.80
2019-02-14T14:35:46.563Z,43.60
2019-02-14T14:38:17.897Z,44.30
2019-02-14T14:40:49.260Z,42.00
2019-02-14T14:43:28.644Z,43.00
2019-02-14T14:46:21.176Z,42.30
2019-02-14T14:48:52.255Z,41.50
2019-02-14T14:51:24.009Z,42.50
2019-02-14T14:53:55.363Z,42.30
2019-02-14T14:56:26.883Z,41.30
2019-02-14T14:58:58.045Z,41.90
2019-02-14T15:01:29.651Z,42.00
2019-02-14T15:04:00.845Z,42.20
2019-02-14T15:06:32.194Z,42.30
2019-02-14T15:09:03.719Z,42.80
2019-02-14T15:11:35.665Z,44.80
2019-02-14T15:14:06.895Z,44.00
2019-02-14T15:16:38.566Z,44.00
2019-02-14T15:19:10.137Z,45.60
2019-02-14T15:21:41.485Z,45.20
2019-02-14T15:24:12.578Z,45.70
2019-02-14T15:26:43.982Z,45.20
2019-02-14T15:29:15.319Z,45.00
2019-02-14T15:31:46.673Z,44.40
2019-02-14T15:34:17.874Z,43.40
2019-02-14T15:36:49.520Z,42.80
2019-02-14T15:39:22.167Z,44.70
2019-02-14T15:41:55.943Z,43.90
2019-02-14T15:44:26.546Z,44.10
2019-02-14T15:46:57.857Z,45.60
2019-02-14T15:49:29.171Z,46.50
2019-02-14T15:52:00.620Z,48.70
2019-02-14T15:54:33.087Z,49.40
2019-02-14T15:57:05.388Z,49.50
2019-02-14T15:59:37.046Z,48.80
2019-02-14T16:02:08.564Z,47.60
2019-02-14T16:04:39.899Z,48.00
2019-02-14T16:07:13.618Z,48.20
2019-02-14T16:09:45.857Z,48.90
2019-02-14T16:12:17.758Z,48.30
2019-02-14T16:14:50.076Z,49.80
2019-02-14T16:17:21.297Z,50.90
2019-02-14T16:19:57.547Z,51.90
2019-02-14T16:22:30.297Z,51.80
2019-02-14T16:25:04.483Z,53.40
2019-02-14T16:27:39.294Z,51.80
2019-02-14T16:30:21.755Z,54.40
2019-02-14T16:32:53.191Z,55.10
2019-02-14T16:35:24.972Z,57.00
2019-02-14T16:37:57.947Z,59.10
2019-02-14T16:40:38.000Z,61.50
2019-02-14T16:43:02.389Z,67.30
2019-02-14T16:45:33.492Z,72.80
2019-02-14T16:48:04.959Z,76.70
2019-02-14T16:50:36.247Z,78.40
2019-02-14T16:53:07.530Z,84.80
2019-02-14T16:55:38.606Z,88.90
2019-02-14T16:58:09.815Z,91.70
2019-02-14T17:00:40.895Z,92.90
2019-02-14T17:03:12.149Z,93.50
2019-02-14T17:05:43.511Z,92.30
2019-02-14T17:08:14.920Z,93.40
2019-02-14T17:10:46.022Z,95.60
2019-02-14T17:13:17.531Z,96.20
2019-02-14T17:15:48.799Z,95.70
2019-02-14T17:18:20.117Z,97.30
2019-02-14T17:20:51.235Z,97.50
2019-02-14T17:23:22.842Z,97.60
2019-02-14T17:25:54.026Z,99.30
2019-02-14T17:28:25.301Z,99.90
2019-02-14T17:30:56.397Z,99.90
2019-02-14T17:33:27.822Z,99.90
2019-02-14T17:36:17.964Z,99.90
2019-02-14T17:38:49.235Z,99.90
2019-02-14T17:41:20.386Z,99.90
2019-02-14T17:43:51.749Z,99.90
2019-02-14T17:46:22.872Z,99.90
2019-02-14T17:48:54.341Z,99.90
2019-02-14T17:51:26.605Z,99.90
2019-02-14T17:53:58.065Z,99.90
2019-02-14T17:56:29.114Z,99.90
2019-02-14T17:59:01.011Z,99.90
2019-02-14T18:01:34.155Z,99.90
2019-02-14T18:04:05.423Z,99.90
2019-02-14T18:06:36.495Z,99.90
2019-02-14T18:09:07.806Z,99.90
2019-02-14T18:11:39.049Z,99.90
2019-02-14T18:14:10.385Z,99.90
2019-02-14T18:16:41.483Z,99.90
2019-02-14T18:19:12.729Z,99.90
2019-02-14T18:21:43.877Z,99.90
2019-02-14T18:24:15.282Z,99.90
2019-02-14T18:26:46.408Z,99.90
2019-02-14T18:29:17.781Z,99.90
2019-02-14T18:31:48.971Z,99.90
2019-02-14T18:34:20.243Z,99.90
2019-02-14T18:36:51.333Z,99.90
2019-02-14T18:39:22.703Z,99.90
2019-02-14T18:41:53.841Z,99.90
2019-02-14T18:44:25.262Z,99.90
2019-02-14T18:46:56.451Z,99.90
2019-02-14T18:49:27.837Z,99.90
2019-02-14T18:51:58.978Z,99.90
2019-02-14T18:54:30.453Z,99.90
2019-02-14T18:57:01.597Z,99.90
2019-02-14T18:59:41.647Z,99.90
2019-02-14T19:02:12.701Z,99.90
2019-02-14T19:04:43.994Z,99.90
2019-02-14T19:07:15.136Z,99.90
2019-02-14T19:09:46.549Z,99.90
2019-02-14T19:12:17.846Z,99.90
2019-02-14T19:14:49.125Z,99.90
2019-02-14T19:17:20.215Z,99.90
2019-02-14T19:19:51.713Z,99.90
2019-02-14T19:22:24.044Z,99.90
2019-02-14T19:24:55.565Z,99.90
2019-02-14T19:27:45.740Z,99.90
2019-02-14T19:30:17.234Z,99.90
2019-02-14T19:32:48.409Z,99.90
2019-02-14T19:35:23.026Z,99.90
2019-02-14T19:37:52.529Z,99.90
2019-02-14T19:40:23.926Z,99.90
2019-02-14T19:42:55.021Z,99.90
2019-02-14T19:45:36.053Z,99.90
2019-02-14T19:47:59.259Z,99.90
2019-02-14T19:50:30.540Z,99.90
2019-02-14T19:53:01.713Z,99.90
2019-02-14T19:55:33.155Z,99.90
2019-02-14T19:58:04.305Z,99.90
2019-02-14T20:00:35.635Z,99.90
2019-02-14T20:03:06.810Z,99.90
2019-02-14T20:05:38.144Z,99.90
2019-02-14T20:08:09.323Z,99.90
2019-02-14T20:10:40.662Z,99.90
2019-02-14T20:13:11.905Z,99.90
2019-02-14T20:15:43.327Z,99.90
2019-02-14T20:18:14.621Z,99.90
2019-02-14T20:20:46.116Z,99.90
2019-02-14T20:23:17.203Z,99.90
2019-02-14T20:25:48.724Z,99.90
2019-02-14T20:28:19.874Z,99.90
2019-02-14T20:30:51.212Z,99.90
2019-02-14T20:33:22.308Z,99.90
2019-02-14T20:35:53.518Z,99.90
2019-02-14T20:38:24.692Z,99.90
2019-02-14T20:40:56.109Z,99.90
2019-02-14T20:43:27.255Z,99.90
2019-02-14T20:45:58.613Z,99.90
2019-02-14T20:48:29.785Z,99.90
2019-02-14T20:51:01.205Z,99.90
2019-02-14T20:53:32.553Z,99.90
2019-02-14T20:56:04.005Z,99.90
2019-02-14T20:58:35.273Z,99.90
2019-02-14T21:01:09.056Z,99.90
2019-02-14T21:03:40.285Z,99.90
2019-02-14T21:06:11.625Z,99.90
2019-02-14T21:08:42.833Z,99.90
2019-02-14T21:11:14.376Z,99.90
2019-02-14T21:13:45.624Z,99.90
2019-02-14T21:16:17.182Z,99.90
2019-02-14T21:18:49.766Z,99.90
2019-02-14T21:21:21.495Z,99.90
2019-02-14T21:23:52.674Z,99.90
2019-02-14T21:26:24.029Z,99.90
2019-02-14T21:28:55.398Z,99.90
2019-02-14T21:31:26.895Z,99.90
2019-02-14T21:33:58.057Z,99.90
2019-02-14T21:36:29.492Z,99.90
2019-02-14T21:39:00.700Z,99.90
2019-02-14T21:41:33.704Z,99.90
2019-02-14T21:44:04.998Z,99.90
2019-02-14T21:46:55.678Z,99.90
2019-02-14T21:49:26.883Z,99.90
2019-02-14T21:51:58.380Z,99.90
2019-02-14T21:54:29.661Z,99.90
2019-02-14T21:57:01.111Z,99.90
2019-02-14T21:59:32.630Z,99.90
2019-02-14T22:02:06.390Z,99.90
2019-02-14T22:04:38.030Z,99.90
2019-02-14T22:07:09.550Z,99.90
2019-02-14T22:09:52.323Z,99.90
2019-02-14T22:12:38.844Z,99.90
2019-02-14T22:14:59.391Z,99.90
2019-02-14T22:17:30.752Z,99.90
2019-02-14T22:20:01.965Z,99.90
2019-02-14T22:22:33.722Z,99.90
2019-02-14T22:25:05.099Z,99.90
2019-02-14T22:27:36.409Z,99.90
2019-02-14T22:30:12.699Z,99.90
2019-02-14T22:32:44.222Z,99.90
2019-02-14T22:35:15.447Z,99.90
2019-02-14T22:37:46.920Z,99.90
2019-02-14T22:40:18.131Z,99.90
2019-02-14T22:42:49.531Z,99.90
2019-02-14T22:45:20.675Z,99.90
2019-02-14T22:47:51.965Z,99.90
2019-02-14T22:50:24.057Z,99.90
2019-02-14T22:52:55.448Z,99.90
2019-02-14T22:55:26.634Z,99.90
2019-02-14T22:57:58.151Z,99.90
2019-02-14T23:00:37.508Z,99.90
2019-02-14T23:03:10.452Z,99.90
2019-02-14T23:05:41.697Z,99.90
2019-02-14T23:08:13.081Z,99.90
2019-02-14T23:10:44.324Z,99.90
2019-02-14T23:13:15.655Z,99.90
2019-02-14T23:15:46.879Z,99.90
2019-02-14T23:18:18.349Z,99.90
2019-02-14T23:20:49.509Z,99.90
2019-02-14T23:23:20.864Z,99.90
2019-02-14T23:25:52.081Z,99.90
2019-02-14T23:28:23.638Z,99.90
2019-02-14T23:30:54.769Z,99.90
2019-02-14T23:33:26.135Z,99.90
2019-02-14T23:35:57.260Z,99.90
2019-02-14T23:38:28.623Z,99.90
2019-02-14T23:40:59.821Z,99.90
2019-02-14T23:43:31.223Z,99.90
2019-02-14T23:46:02.329Z,99.90
2019-02-14T23:48:33.710Z,99.90
2019-02-14T23:51:04.926Z,99.90
2019-02-14T23:53:36.313Z,99.90
2019-02-14T23:56:18.899Z,99.90
2019-02-14T23:58:50.428Z,99.90
